Time;durP1;ratioP1;P1;durP2;ratioP2;P2;SDS_P1;SDS_P2;PMS_P1;PMS_P2;Temp;Humidity;BMP_temperature;BMP_pressure;BME280_temperature;BME280_humidity;BME280_pressure;Samples;Min_cycle;Max_cycle;Signal;HPM_P1;HPM_P2
2024/02/21 00:01:16;;;;;;;9.00;3.10;;;10.30;99.90;;;;;;5052461;28;20238;-56
2024/02/21 00:03:43;;;;;;;8.77;2.90;;;10.30;99.90;;;;;;5052804;28;20229;-55
2024/02/21 00:06:09;;;;;;;10.23;2.63;;;10.30;99.90;;;;;;5052630;28;20259;-57
2024/02/21 00:08:36;;;;;;;10.03;3.10;;;10.40;99.90;;;;;;5052732;28;20291;-56
2024/02/21 00:11:03;;;;;;;7.87;2.97;;;10.40;99.90;;;;;;5052393;28;20741;-56
2024/02/21 00:13:29;;;;;;;8.57;2.80;;;10.40;99.90;;;;;;5052106;28;20202;-56
2024/02/21 00:15:57;;;;;;;8.77;3.27;;;10.40;99.90;;;;;;5052056;28;20627;-57
2024/02/21 00:18:24;;;;;;;6.47;3.17;;;10.40;99.90;;;;;;5052222;28;20228;-57
2024/02/21 00:20:51;;;;;;;5.73;2.90;;;10.30;99.90;;;;;;5051919;28;20264;-56
2024/02/21 00:23:17;;;;;;;9.10;3.17;;;10.40;99.90;;;;;;5052125;28;20581;-56
2024/02/21 00:25:44;;;;;;;6.33;3.17;;;10.30;99.90;;;;;;5052172;28;20247;-58
2024/02/21 00:28:11;;;;;;;8.23;3.13;;;10.30;99.90;;;;;;5051869;28;20221;-57
2024/02/21 00:30:38;;;;;;;6.70;3.17;;;10.30;99.90;;;;;;5051718;28;20197;-56
2024/02/21 00:33:06;;;;;;;6.73;3.20;;;10.20;99.90;;;;;;5052005;28;20292;-57
2024/02/21 00:35:33;;;;;;;8.30;2.90;;;10.10;99.90;;;;;;5052032;28;20206;-56
2024/02/21 00:37:59;;;;;;;9.97;3.13;;;10.00;99.90;;;;;;5051862;28;20225;-56
2024/02/21 00:40:26;;;;;;;8.33;2.93;;;10.00;99.90;;;;;;5051834;28;20209;-56
2024/02/21 00:42:53;;;;;;;9.03;2.97;;;9.90;99.90;;;;;;5051920;28;20209;-56
2024/02/21 00:45:19;;;;;;;8.93;3.23;;;9.90;99.90;;;;;;5051342;28;20201;-55
2024/02/21 00:47:46;;;;;;;7.13;3.00;;;10.00;99.90;;;;;;5051754;28;20606;-56
2024/02/21 00:50:14;;;;;;;6.90;3.07;;;9.90;99.90;;;;;;5051533;28;20705;-58
2024/02/21 00:52:41;;;;;;;8.67;3.37;;;9.90;99.90;;;;;;5052192;28;20197;-56
2024/02/21 00:55:09;;;;;;;11.07;3.17;;;9.90;99.90;;;;;;5051510;28;20279;-55
2024/02/21 00:57:35;;;;;;;7.93;2.90;;;9.80;99.90;;;;;;5051579;28;20627;-56
2024/02/21 01:00:02;;;;;;;5.13;3.20;;;9.90;99.90;;;;;;5051434;28;20229;-55
2024/02/21 01:02:31;;;;;;;7.07;2.83;;;9.90;99.90;;;;;;5051825;28;20584;-56
2024/02/21 01:04:57;;;;;;;8.53;3.27;;;9.90;99.90;;;;;;5051499;28;20216;-56
2024/02/21 01:07:25;;;;;;;9.27;3.27;;;9.80;99.90;;;;;;5051519;28;20201;-56
2024/02/21 01:09:52;;;;;;;8.57;3.20;;;9.80;99.90;;;;;;5051230;28;20230;-56
2024/02/21 01:12:19;;;;;;;7.60;2.60;;;9.80;99.90;;;;;;5051397;28;20205;-57
2024/02/21 01:14:46;;;;;;;10.20;3.13;;;9.80;99.90;;;;;;5051577;28;20201;-55
2024/02/21 01:17:13;;;;;;;10.27;3.37;;;9.90;99.90;;;;;;5051446;28;20316;-56
2024/02/21 01:19:40;;;;;;;7.27;2.90;;;9.90;99.90;;;;;;5051537;28;20226;-55
2024/02/21 01:22:06;;;;;;;6.87;2.77;;;10.00;99.90;;;;;;5051466;28;20267;-56
2024/02/21 01:24:34;;;;;;;8.20;2.43;;;10.00;99.90;;;;;;5051302;28;20232;-57
2024/02/21 01:27:01;;;;;;;9.27;3.30;;;10.00;99.90;;;;;;5051414;28;20240;-56
2024/02/21 01:29:28;;;;;;;7.37;3.27;;;10.00;99.90;;;;;;5051233;28;20225;-55
2024/02/21 01:31:54;;;;;;;7.40;2.90;;;10.00;99.90;;;;;;5051193;28;20205;-55
2024/02/21 01:34:21;;;;;;;10.00;3.30;;;10.00;99.90;;;;;;5051414;28;20209;-57
2024/02/21 01:36:48;;;;;;;7.97;3.00;;;9.90;99.90;;;;;;5051342;28;20221;-56
2024/02/21 01:39:14;;;;;;;6.83;2.63;;;9.90;99.90;;;;;;5051107;28;20221;-56
2024/02/21 01:41:42;;;;;;;11.87;3.47;;;9.90;99.90;;;;;;5051223;28;20209;-55
2024/02/21 01:44:09;;;;;;;6.73;2.97;;;9.90;99.90;;;;;;5051356;28;20213;-55
2024/02/21 01:46:36;;;;;;;10.13;4.00;;;9.90;99.90;;;;;;5051269;28;20228;-57
2024/02/21 01:49:04;;;;;;;6.87;3.03;;;9.80;99.90;;;;;;5050970;28;20636;-56
2024/02/21 01:51:31;;;;;;;6.50;2.87;;;9.80;99.90;;;;;;5050960;28;20202;-56
2024/02/21 01:53:59;;;;;;;9.47;3.23;;;9.90;99.90;;;;;;5051050;28;20217;-56
2024/02/21 01:56:26;;;;;;;7.60;3.10;;;9.80;99.90;;;;;;5052893;28;20202;-56
2024/02/21 01:58:54;;;;;;;7.87;3.10;;;9.80;99.90;;;;;;5054767;28;20230;-55
2024/02/21 02:01:21;;;;;;;7.93;2.40;;;9.70;99.90;;;;;;5054604;28;20206;-55
2024/02/21 02:03:48;;;;;;;9.37;2.70;;;9.70;99.90;;;;;;5054706;28;20729;-55
2024/02/21 02:06:15;;;;;;;9.27;2.93;;;9.60;99.90;;;;;;5055115;28;20259;-55
2024/02/21 02:08:42;;;;;;;5.70;2.90;;;9.60;99.90;;;;;;5054813;28;20218;-58
2024/02/21 02:11:09;;;;;;;7.23;2.63;;;9.60;99.90;;;;;;5054412;28;20210;-55
2024/02/21 02:13:36;;;;;;;12.03;3.40;;;9.70;99.90;;;;;;5054666;28;20220;-57
2024/02/21 02:16:05;;;;;;;7.63;3.17;;;9.80;99.90;;;;;;5054795;28;20213;-57
2024/02/21 02:18:31;;;;;;;6.57;2.80;;;9.80;99.90;;;;;;5054428;28;20232;-57
2024/02/21 02:20:57;;;;;;;6.73;3.27;;;9.70;99.90;;;;;;5053898;28;20251;-57
2024/02/21 02:23:26;;;;;;;5.10;2.53;;;9.80;99.90;;;;;;5054400;28;20205;-56
2024/02/21 02:25:53;;;;;;;8.20;2.83;;;9.80;99.90;;;;;;5054223;28;20209;-56
2024/02/21 02:28:21;;;;;;;9.10;3.10;;;9.70;99.90;;;;;;5054462;28;20602;-57
2024/02/21 02:30:48;;;;;;;7.50;2.60;;;9.70;99.90;;;;;;5054454;28;20619;-57
2024/02/21 02:33:17;;;;;;;9.97;3.57;;;9.60;99.90;;;;;;5054098;28;20205;-58
2024/02/21 02:35:43;;;;;;;8.80;3.00;;;9.70;99.90;;;;;;5054152;28;20208;-56
2024/02/21 02:38:11;;;;;;;8.23;2.70;;;9.70;99.90;;;;;;5053823;28;20229;-57
2024/02/21 02:40:40;;;;;;;7.43;2.73;;;9.70;99.90;;;;;;5054025;28;20204;-56
2024/02/21 02:43:07;;;;;;;10.40;3.07;;;9.80;99.90;;;;;;5053862;28;20244;-57
2024/02/21 02:45:34;;;;;;;6.90;2.83;;;9.80;99.90;;;;;;5054016;28;20352;-57
2024/02/21 02:48:01;;;;;;;6.27;2.93;;;9.80;99.90;;;;;;5053692;28;20642;-56
2024/02/21 02:50:28;;;;;;;8.87;2.90;;;9.90;99.90;;;;;;5053938;28;20198;-57
2024/02/21 02:52:55;;;;;;;7.30;2.70;;;9.90;99.90;;;;;;5053969;28;20209;-56
2024/02/21 02:55:21;;;;;;;5.60;2.80;;;9.90;99.90;;;;;;5053908;28;20202;-56
2024/02/21 02:57:49;;;;;;;10.17;3.10;;;9.90;99.90;;;;;;5053995;28;20268;-56
2024/02/21 03:00:16;;;;;;;9.53;2.40;;;9.90;99.90;;;;;;5053399;28;20208;-57
2024/02/21 03:02:45;;;;;;;6.27;2.80;;;9.90;99.90;;;;;;5053954;28;20259;-57
2024/02/21 03:05:14;;;;;;;7.37;2.67;;;9.90;99.90;;;;;;5053476;28;20304;-57
2024/02/21 03:07:41;;;;;;;7.73;2.63;;;9.90;99.90;;;;;;5052960;28;20293;-56
2024/02/21 03:10:09;;;;;;;7.43;2.63;;;10.00;99.90;;;;;;5053237;28;20249;-57
2024/02/21 03:12:35;;;;;;;7.97;2.30;;;10.10;99.90;;;;;;5053695;28;20205;-57
2024/02/21 03:15:04;;;;;;;8.30;3.03;;;10.10;99.90;;;;;;5053255;28;20216;-57
2024/02/21 03:17:31;;;;;;;5.03;2.70;;;10.10;99.90;;;;;;5053589;28;20232;-57
2024/02/21 03:19:59;;;;;;;8.07;2.73;;;10.20;99.90;;;;;;5053150;28;20264;-57
2024/02/21 03:22:26;;;;;;;6.97;2.57;;;10.20;99.90;;;;;;5053157;28;20226;-56
2024/02/21 03:24:53;;;;;;;8.73;2.70;;;10.20;99.90;;;;;;5053325;28;20263;-57
2024/02/21 03:27:19;;;;;;;8.67;2.60;;;10.20;99.90;;;;;;5045117;28;20202;-56
2024/02/21 03:29:46;;;;;;;8.53;2.80;;;10.10;99.90;;;;;;5053123;28;20229;-56
2024/02/21 03:32:14;;;;;;;6.23;2.63;;;9.90;99.90;;;;;;5052911;28;20209;-56
2024/02/21 03:34:41;;;;;;;7.20;3.00;;;9.80;99.90;;;;;;5053254;28;20202;-57
2024/02/21 03:37:07;;;;;;;5.97;2.67;;;9.90;99.90;;;;;;5052847;28;20339;-56
2024/02/21 03:39:34;;;;;;;8.47;2.93;;;9.90;99.90;;;;;;5052872;28;20225;-56
2024/02/21 03:42:04;;;;;;;11.17;3.40;;;9.90;99.90;;;;;;5052706;28;20206;-56
2024/02/21 03:44:31;;;;;;;6.70;3.03;;;9.80;99.90;;;;;;5053058;28;20209;-57
2024/02/21 03:46:57;;;;;;;8.13;2.90;;;9.70;99.90;;;;;;5052690;28;20603;-56
2024/02/21 03:49:25;;;;;;;7.77;2.77;;;9.60;99.90;;;;;;5052913;28;20218;-58
2024/02/21 03:51:52;;;;;;;4.77;2.10;;;9.60;99.90;;;;;;5052513;28;20209;-57
2024/02/21 03:54:19;;;;;;;6.40;2.77;;;9.60;99.90;;;;;;5052604;28;20209;-57
2024/02/21 03:56:47;;;;;;;4.50;2.37;;;9.60;99.90;;;;;;5052447;28;20229;-56
2024/02/21 03:59:14;;;;;;;5.27;2.63;;;9.60;99.90;;;;;;5075614;22;20236;-60
2024/02/21 04:01:41;;;;;;;7.77;3.20;;;9.60;99.90;;;;;;5052479;28;20209;-60
2024/02/21 04:04:07;;;;;;;5.37;2.60;;;9.60;99.90;;;;;;5052597;28;20278;-60
2024/02/21 04:06:36;;;;;;;6.77;2.50;;;9.60;99.90;;;;;;5052744;28;20299;-60
2024/02/21 04:09:03;;;;;;;7.70;2.80;;;9.50;99.90;;;;;;5051307;28;20221;-60
2024/02/21 04:11:29;;;;;;;8.03;3.40;;;9.50;99.90;;;;;;5040297;28;20217;-59
2024/02/21 04:13:56;;;;;;;7.97;3.30;;;9.60;99.90;;;;;;5040916;28;20202;-59
2024/02/21 04:16:23;;;;;;;6.43;2.90;;;9.60;99.90;;;;;;5044115;28;20693;-62
2024/02/21 04:18:49;;;;;;;4.23;2.60;;;9.60;99.90;;;;;;5044045;28;20225;-60
2024/02/21 04:21:18;;;;;;;8.47;2.90;;;9.60;99.90;;;;;;5040906;28;20206;-60
2024/02/21 04:23:46;;;;;;;6.90;3.23;;;9.50;99.90;;;;;;5040533;28;20206;-60
2024/02/21 04:26:12;;;;;;;8.13;2.47;;;9.40;99.90;;;;;;5042728;28;20625;-60
2024/02/21 04:28:39;;;;;;;9.07;2.90;;;9.20;99.90;;;;;;5043788;28;20222;-59
2024/02/21 04:31:06;;;;;;;5.53;2.80;;;9.20;99.90;;;;;;5042188;28;20663;-60
2024/02/21 04:33:32;;;;;;;7.27;3.20;;;9.20;99.90;;;;;;5040205;28;20256;-60
2024/02/21 04:36:00;;;;;;;7.57;2.90;;;9.20;99.90;;;;;;5040805;28;20210;-60
2024/02/21 04:38:28;;;;;;;7.50;3.10;;;9.10;99.90;;;;;;5043414;28;20232;-60
2024/02/21 04:40:58;;;;;;;5.57;2.53;;;9.10;99.90;;;;;;5043741;28;20671;-60
2024/02/21 04:43:25;;;;;;;7.83;3.00;;;9.00;99.90;;;;;;5043862;28;20327;-60
2024/02/21 04:45:53;;;;;;;6.80;2.57;;;8.90;99.90;;;;;;5043671;28;20202;-60
2024/02/21 04:48:20;;;;;;;8.20;2.60;;;8.90;99.90;;;;;;5040000;28;20620;-60
2024/02/21 04:50:46;;;;;;;8.13;2.53;;;8.80;99.90;;;;;;5039983;28;20201;-60
2024/02/21 04:53:13;;;;;;;4.67;2.63;;;8.90;99.90;;;;;;5042450;28;20217;-59
2024/02/21 04:55:40;;;;;;;10.13;3.03;;;8.90;99.90;;;;;;5043799;28;20205;-59
2024/02/21 04:58:09;;;;;;;8.47;2.60;;;8.80;99.90;;;;;;5041872;28;20253;-59
2024/02/21 05:00:35;;;;;;;9.07;3.43;;;8.80;99.90;;;;;;5039837;28;20206;-59
2024/02/21 05:03:02;;;;;;;6.50;2.47;;;8.70;99.90;;;;;;5040688;28;20206;-60
2024/02/21 05:05:29;;;;;;;7.10;2.80;;;8.70;99.90;;;;;;5043253;28;20224;-60
2024/02/21 05:07:55;;;;;;;5.63;2.23;;;8.60;99.90;;;;;;5043613;28;20205;-59
2024/02/21 05:10:22;;;;;;;7.27;3.00;;;8.60;99.90;;;;;;5031593;28;20715;-60
2024/02/21 05:12:49;;;;;;;6.77;2.90;;;8.60;99.90;;;;;;5039938;28;20198;-60
2024/02/21 05:15:17;;;;;;;7.73;3.17;;;8.60;99.90;;;;;;5042428;28;20635;-60
2024/02/21 05:17:44;;;;;;;6.67;2.80;;;8.50;99.90;;;;;;5042895;28;20275;-60
2024/02/21 05:20:11;;;;;;;7.47;3.80;;;8.50;99.90;;;;;;5040747;28;20225;-62
2024/02/21 05:22:38;;;;;;;7.63;2.93;;;8.40;99.90;;;;;;5039835;28;20252;-60
2024/02/21 05:25:05;;;;;;;9.67;4.40;;;8.30;99.90;;;;;;5040520;28;20672;-60
2024/02/21 05:27:32;;;;;;;10.53;4.00;;;8.20;99.90;;;;;;5043130;28;20581;-60
2024/02/21 05:29:59;;;;;;;12.80;3.73;;;8.10;99.90;;;;;;5042838;28;20217;-61
2024/02/21 05:32:28;;;;;;;8.43;3.63;;;8.10;99.90;;;;;;5042475;28;20293;-60
2024/02/21 05:34:54;;;;;;;6.73;3.00;;;8.00;99.90;;;;;;5043958;28;20232;-61
2024/02/21 05:37:21;;;;;;;6.80;2.93;;;7.90;99.90;;;;;;5046968;28;20201;-60
2024/02/21 05:39:48;;;;;;;7.83;3.17;;;7.80;99.90;;;;;;5047006;28;20222;-62
2024/02/21 05:42:15;;;;;;;8.93;3.40;;;7.70;99.90;;;;;;5044211;28;20231;-62
2024/02/21 05:44:42;;;;;;;14.50;7.17;;;7.70;99.90;;;;;;5043449;28;20733;-62
2024/02/21 05:47:10;;;;;;;7.57;3.40;;;7.70;99.90;;;;;;5045009;28;20241;-62
2024/02/21 05:49:38;;;;;;;7.90;2.67;;;7.60;99.90;;;;;;5046815;28;20249;-61
2024/02/21 05:52:06;;;;;;;7.50;2.70;;;7.60;99.90;;;;;;5045564;28;20282;-62
2024/02/21 05:54:32;;;;;;;8.93;2.70;;;7.60;99.90;;;;;;5043546;28;20202;-60
2024/02/21 05:56:59;;;;;;;6.73;2.90;;;7.50;99.90;;;;;;5043423;28;20208;-62
2024/02/21 05:59:26;;;;;;;5.27;2.37;;;7.50;99.90;;;;;;5046480;28;20221;-62
2024/02/21 06:01:57;;;;;;;6.90;2.90;;;7.40;99.90;;;;;;5046243;28;20221;-62
2024/02/21 06:04:24;;;;;;;7.13;2.97;;;7.50;99.90;;;;;;5035209;28;20212;-62
2024/02/21 06:06:52;;;;;;;7.03;3.10;;;7.50;99.90;;;;;;5043321;28;20226;-60
2024/02/21 06:09:18;;;;;;;9.63;3.17;;;7.50;99.90;;;;;;5045767;28;20230;-61
2024/02/21 06:11:46;;;;;;;9.30;3.67;;;7.50;99.90;;;;;;5046234;28;20202;-61
2024/02/21 06:14:12;;;;;;;6.40;2.93;;;7.50;99.90;;;;;;5044088;28;20699;-62
2024/02/21 06:16:39;;;;;;;7.37;3.70;;;7.60;99.90;;;;;;5043039;28;20582;-62
2024/02/21 06:19:06;;;;;;;4.33;2.57;;;7.60;99.90;;;;;;5043615;28;20641;-62
2024/02/21 06:21:32;;;;;;;7.30;2.93;;;7.60;99.90;;;;;;5046001;28;20732;-63
2024/02/21 06:24:00;;;;;;;5.97;2.80;;;7.60;99.90;;;;;;5046146;28;20205;-61
2024/02/21 06:26:27;;;;;;;5.10;2.67;;;7.60;99.90;;;;;;5042646;28;20272;-61
2024/02/21 06:28:54;;;;;;;5.87;2.80;;;7.70;99.90;;;;;;5042457;28;20678;-61
2024/02/21 06:31:20;;;;;;;8.40;3.20;;;7.70;99.90;;;;;;5045375;28;20202;-63
2024/02/21 06:33:47;;;;;;;8.30;2.73;;;7.60;99.90;;;;;;5046273;28;20228;-60
2024/02/21 06:36:13;;;;;;;6.90;2.80;;;7.50;99.90;;;;;;5044095;28;20206;-61
2024/02/21 06:38:40;;;;;;;8.27;2.70;;;7.60;99.90;;;;;;5042376;28;20241;-61
2024/02/21 06:41:15;;;;;;;4.97;2.60;;;7.60;99.90;;;;;;5043191;28;20210;-61
2024/02/21 06:43:42;;;;;;;10.30;2.80;;;7.70;99.90;;;;;;5044637;28;20197;-62
2024/02/21 06:46:09;;;;;;;7.07;2.70;;;7.80;99.90;;;;;;5044312;28;20206;-62
2024/02/21 06:48:35;;;;;;;5.43;2.77;;;7.90;99.90;;;;;;5042096;28;20260;-62
2024/02/21 06:51:03;;;;;;;6.83;2.67;;;8.00;99.90;;;;;;5042431;28;20264;-61
2024/02/21 06:53:29;;;;;;;6.50;2.60;;;8.20;99.90;;;;;;5045639;28;20297;-60
2024/02/21 06:55:56;;;;;;;5.07;2.50;;;8.30;99.90;;;;;;5045585;28;20667;-61
2024/02/21 06:58:24;;;;;;;5.20;2.80;;;8.40;99.90;;;;;;5042123;28;20198;-61
2024/02/21 07:00:51;;;;;;;7.47;3.67;;;8.60;99.90;;;;;;5041854;28;20203;-61
2024/02/21 07:03:17;;;;;;;5.97;3.37;;;8.80;99.90;;;;;;5044464;28;20209;-61
2024/02/21 07:05:44;;;;;;;6.97;3.20;;;9.00;99.90;;;;;;5047619;28;20209;-61
2024/02/21 07:08:11;;;;;;;9.07;2.70;;;9.10;99.90;;;;;;5043255;28;20206;-61
2024/02/21 07:10:37;;;;;;;8.87;2.67;;;9.30;99.90;;;;;;5045550;28;20202;-61
2024/02/21 07:13:04;;;;;;;5.17;2.80;;;9.70;99.90;;;;;;5044603;28;20235;-60
2024/02/21 07:15:33;;;;;;;5.97;2.63;;;10.20;99.90;;;;;;5041993;28;20214;-61
2024/02/21 07:17:59;;;;;;;6.10;2.40;;;10.70;99.90;;;;;;5041743;28;20289;-61
2024/02/21 07:20:26;;;;;;;6.57;2.33;;;11.20;99.90;;;;;;5033195;28;20313;-58
2024/02/21 07:22:53;;;;;;;6.90;2.37;;;11.50;99.90;;;;;;5041589;28;20213;-61
2024/02/21 07:25:19;;;;;;;5.00;2.40;;;11.80;99.90;;;;;;5043912;28;20676;-60
2024/02/21 07:27:46;;;;;;;4.57;2.40;;;11.90;99.90;;;;;;5044872;28;20202;-60
2024/02/21 07:30:13;;;;;;;5.27;2.20;;;11.90;99.90;;;;;;5042673;28;20225;-60
2024/02/21 07:32:41;;;;;;;5.30;2.40;;;11.80;99.90;;;;;;5041343;28;20210;-60
2024/02/21 07:35:11;;;;;;;6.63;2.63;;;11.80;99.90;;;;;;5042111;28;20223;-61
2024/02/21 07:37:38;;;;;;;7.80;2.50;;;11.70;99.90;;;;;;5044595;28;20292;-60
2024/02/21 07:40:06;;;;;;;5.77;2.00;;;11.60;99.90;;;;;;5043698;28;20222;-60
2024/02/21 07:42:33;;;;;;;5.00;2.23;;;11.50;99.90;;;;;;5041362;28;20209;-60
2024/02/21 07:45:00;;;;;;;4.77;2.00;;;11.50;99.90;;;;;;5041331;28;20202;-60
2024/02/21 07:47:26;;;;;;;6.57;2.47;;;11.30;99.90;;;;;;5033715;28;20206;-59
2024/02/21 07:49:54;;;;;;;5.83;2.20;;;11.20;99.90;;;;;;5041341;28;20226;-60
2024/02/21 07:52:21;;;;;;;8.87;2.53;;;11.10;99.90;;;;;;5044058;28;20212;-60
2024/02/21 07:54:48;;;;;;;5.03;2.20;;;11.10;99.90;;;;;;5044428;28;20209;-60
2024/02/21 07:57:14;;;;;;;6.60;2.50;;;11.00;99.90;;;;;;5042894;28;20210;-60
2024/02/21 07:59:41;;;;;;;7.37;2.00;;;10.90;99.90;;;;;;5040576;28;20226;-60
2024/02/21 08:02:08;;;;;;;7.30;2.73;;;10.90;99.90;;;;;;5041238;28;20699;-61
2024/02/21 08:04:35;;;;;;;4.43;2.00;;;10.90;99.90;;;;;;5043952;28;20671;-59
2024/02/21 08:07:04;;;;;;;4.83;2.17;;;10.90;99.90;;;;;;5044021;28;20683;-60
2024/02/21 08:09:30;;;;;;;5.97;1.97;;;11.10;99.90;;;;;;5040526;28;20313;-60
2024/02/21 08:11:57;;;;;;;7.37;2.63;;;11.20;99.90;;;;;;5040684;28;20206;-61
2024/02/21 08:14:24;;;;;;;7.93;2.63;;;11.10;99.90;;;;;;5043494;28;20585;-60
2024/02/21 08:16:52;;;;;;;4.40;1.90;;;11.20;99.90;;;;;;5043823;28;20296;-60
2024/02/21 08:19:19;;;;;;;7.17;2.70;;;11.20;99.90;;;;;;5041217;28;20263;-60
2024/02/21 08:21:47;;;;;;;7.30;2.37;;;11.20;99.90;;;;;;5040448;28;20272;-62
2024/02/21 08:24:15;;;;;;;9.10;2.70;;;11.20;99.90;;;;;;5042127;28;20249;-61
2024/02/21 08:26:42;;;;;;;7.30;2.40;;;11.30;99.90;;;;;;5043799;28;20229;-59
2024/02/21 08:29:09;;;;;;;4.10;2.00;;;11.30;99.90;;;;;;5042385;28;20222;-60
2024/02/21 08:31:35;;;;;;;5.67;2.40;;;11.40;99.90;;;;;;5039776;28;20248;-60
2024/02/21 08:34:03;;;;;;;9.33;2.40;;;11.60;99.90;;;;;;5040464;28;20207;-60
2024/02/21 08:36:30;;;;;;;6.67;2.10;;;11.80;99.90;;;;;;5032285;28;20244;-60
2024/02/21 08:38:57;;;;;;;6.67;2.33;;;12.00;99.90;;;;;;5040236;28;20268;-60
2024/02/21 08:41:25;;;;;;;4.77;2.43;;;12.20;99.90;;;;;;5042471;28;20259;-59
2024/02/21 08:43:53;;;;;;;4.93;2.60;;;12.40;99.90;;;;;;5043356;28;20209;-60
2024/02/21 08:46:20;;;;;;;9.17;2.80;;;12.60;99.90;;;;;;5040823;28;20648;-68
2024/02/21 08:48:47;;;;;;;7.13;2.80;;;12.70;99.90;;;;;;5039934;28;20226;-65
2024/02/21 08:51:14;;;;;;;8.07;3.37;;;12.80;99.90;;;;;;5041331;28;20206;-66
2024/02/21 08:53:41;;;;;;;6.37;2.57;;;13.00;99.90;;;;;;5043320;28;20235;-63
2024/02/21 08:56:08;;;;;;;7.03;2.37;;;13.40;99.90;;;;;;5042616;28;20209;-64
2024/02/21 08:58:37;;;;;;;7.43;2.50;;;13.70;99.90;;;;;;5039554;28;20668;-63
2024/02/21 09:01:05;;;;;;;8.57;3.50;;;13.50;99.90;;;;;;5039436;28;20671;-63
2024/02/21 09:03:32;;;;;;;8.67;2.53;;;13.60;99.90;;;;;;5043387;28;20292;-63
2024/02/21 09:05:59;;;;;;;8.70;2.63;;;13.50;99.90;;;;;;5042578;28;20207;-63
2024/02/21 09:08:26;;;;;;;8.17;2.57;;;13.60;99.90;;;;;;5040154;28;20202;-63
2024/02/21 09:10:53;;;;;;;4.73;2.13;;;13.60;99.90;;;;;;5039536;28;20210;-63
2024/02/21 09:13:20;;;;;;;5.53;2.80;;;13.50;99.90;;;;;;5041678;28;20210;-64
2024/02/21 09:15:48;;;;;;;5.47;2.17;;;13.40;99.90;;;;;;5043649;28;20205;-63
2024/02/21 09:18:15;;;;;;;3.97;2.07;;;13.40;99.90;;;;;;5041631;28;20205;-63
2024/02/21 09:20:42;;;;;;;6.67;2.83;;;13.40;99.90;;;;;;5039650;28;20223;-63
2024/02/21 09:23:08;;;;;;;5.70;2.23;;;13.40;99.90;;;;;;5040330;28;20214;-63
2024/02/21 09:25:35;;;;;;;6.10;2.23;;;13.30;99.90;;;;;;5043109;28;20205;-63
2024/02/21 09:28:03;;;;;;;8.07;2.13;;;13.30;99.90;;;;;;5042888;28;20581;-64
2024/02/21 09:30:30;;;;;;;5.33;2.33;;;13.30;99.90;;;;;;5031397;28;20214;-63
2024/02/21 09:32:59;;;;;;;6.27;2.40;;;13.30;99.90;;;;;;5039737;28;20264;-63
2024/02/21 09:35:27;;;;;;;8.43;2.33;;;13.30;99.90;;;;;;5042815;28;20201;-63
2024/02/21 09:37:54;;;;;;;8.77;2.40;;;13.40;99.90;;;;;;5043314;28;20205;-63
2024/02/21 09:40:21;;;;;;;4.53;2.20;;;13.60;99.90;;;;;;5040014;28;20229;-63
2024/02/21 09:42:48;;;;;;;7.63;2.20;;;13.80;99.90;;;;;;5039561;28;20279;-63
2024/02/21 09:45:20;;;;;;;6.07;2.20;;;13.90;99.90;;;;;;5040697;28;20202;-63
2024/02/21 09:47:59;;;;;;;4.60;2.27;;;13.80;99.90;;;;;;5043103;28;20869;-63
2024/02/21 09:50:29;;;;;;;7.83;2.57;;;13.90;99.90;;;;;;5037613;28;20300;-56
2024/02/21 09:52:59;;;;;;;7.00;2.13;;;13.90;99.90;;;;;;5037704;28;20208;-57
2024/02/21 09:55:27;;;;;;;5.60;2.07;;;14.10;99.90;;;;;;5039939;28;20238;-59
2024/02/21 09:57:55;;;;;;;4.80;2.10;;;14.20;99.90;;;;;;5039296;28;20664;-62
2024/02/21 10:00:22;;;;;;;9.02;2.42;;;14.40;99.90;;;;;;5087760;22;20446;-65
2024/02/21 10:02:49;;;;;;;5.50;2.20;;;14.40;99.90;;;;;;5071008;28;20300;-61
2024/02/21 10:05:17;;;;;;;7.67;2.20;;;14.50;99.90;;;;;;5070430;28;20213;-60
2024/02/21 10:07:45;;;;;;;7.10;2.50;;;14.70;99.90;;;;;;5070757;28;20209;-62
2024/02/21 10:10:12;;;;;;;6.63;2.47;;;14.80;99.90;;;;;;5062216;28;20229;-62
2024/02/21 10:12:49;;;;;;;5.67;2.50;;;15.00;99.90;;;;;;5063112;28;20201;-63
2024/02/21 10:15:21;;;;;;;4.87;2.30;;;15.10;99.90;;;;;;5060638;28;20579;-65
2024/02/21 10:17:48;;;;;;;3.67;2.10;;;15.20;99.90;;;;;;5060813;28;20244;-64
2024/02/21 10:20:16;;;;;;;7.20;2.20;;;15.30;99.90;;;;;;5063519;28;20226;-61
2024/02/21 10:22:43;;;;;;;8.30;2.10;;;15.30;99.90;;;;;;5065895;28;20254;-63
2024/02/21 10:25:12;;;;;;;4.97;1.97;;;15.40;99.90;;;;;;5065598;28;20208;-62
2024/02/21 10:27:39;;;;;;;6.57;2.27;;;15.50;99.90;;;;;;5062134;28;20674;-63
2024/02/21 10:30:08;;;;;;;9.80;2.70;;;15.40;99.90;;;;;;5062071;28;20710;-64
2024/02/21 10:32:34;;;;;;;7.40;2.20;;;15.40;99.90;;;;;;5062335;28;20204;-62
2024/02/21 10:35:03;;;;;;;4.40;2.10;;;15.30;99.90;;;;;;5044310;28;20287;-62
2024/02/21 10:37:29;;;;;;;6.10;2.20;;;15.40;99.90;;;;;;5053701;28;20205;-57
2024/02/21 10:39:56;;;;;;;4.10;1.90;;;15.40;99.90;;;;;;5053715;28;20237;-57
2024/02/21 10:42:29;;;;;;;5.38;1.83;;;15.50;99.90;;;;;;5053471;28;20224;-56
2024/02/21 10:45:01;;;;;;;5.78;2.50;;;15.60;99.90;;;;;;5053795;28;20573;-57
2024/02/21 10:47:31;;;;;;;9.52;6.10;;;15.80;99.90;;;;;;5053931;28;20571;-56
2024/02/21 10:50:04;;;;;;;9.20;4.47;;;16.00;99.90;;;;;;5053394;28;20788;-56
2024/02/21 10:52:40;;;;;;;6.60;2.00;;;16.00;99.90;;;;;;5053170;28;20620;-57
2024/02/21 10:55:15;;;;;;;7.65;2.03;;;16.10;99.90;;;;;;5053955;28;20213;-58
2024/02/21 10:57:44;;;;;;;5.55;1.75;;;16.30;99.90;;;;;;5053806;28;20213;-55
2024/02/21 11:00:12;;;;;;;4.40;2.00;;;16.40;99.90;;;;;;5053065;28;20710;-55
2024/02/21 11:02:40;;;;;;;6.32;2.20;;;16.50;99.90;;;;;;5053894;28;20202;-57
2024/02/21 11:05:08;;;;;;;7.38;2.75;;;16.70;99.90;;;;;;5053358;28;20241;-56
2024/02/21 11:07:38;;;;;;;7.15;2.30;;;16.80;99.90;;;;;;5045896;28;20233;-56
2024/02/21 11:10:07;;;;;;;7.60;3.20;;;16.90;99.90;;;;;;5053563;28;20268;-57
2024/02/21 11:12:34;;;;;;;3.72;1.88;;;17.10;99.90;;;;;;5053823;28;20210;-55
2024/02/21 11:15:09;;;;;;;6.60;1.98;;;17.00;99.90;;;;;;5053745;28;20286;-56
2024/02/21 11:17:35;;;;;;;5.13;2.20;;;16.90;99.90;;;;;;5045102;28;20213;-56
2024/02/21 11:20:12;;;;;;;6.70;2.03;;;17.00;99.90;;;;;;5053055;28;20229;-55
2024/02/21 11:22:43;;;;;;;4.35;2.00;;;17.10;99.10;;;;;;5045612;28;20911;-56
2024/02/21 11:25:11;;;;;;;5.60;2.22;;;17.10;99.30;;;;;;5053207;28;20219;-56
2024/02/21 11:27:38;;;;;;;3.97;1.80;;;17.10;99.50;;;;;;5053086;28;20300;-55
2024/02/21 11:30:09;;;;;;;7.10;1.90;;;17.00;99.30;;;;;;5052196;28;20320;-57
2024/02/21 11:32:37;;;;;;;5.10;1.65;;;17.00;99.30;;;;;;5045127;28;20209;-56
2024/02/21 11:35:04;;;;;;;6.15;2.40;;;17.00;98.80;;;;;;5052782;28;20217;-56
2024/02/21 11:37:33;;;;;;;4.55;2.03;;;17.00;99.00;;;;;;5053106;28;20224;-57
2024/02/21 11:40:00;;;;;;;4.70;1.92;;;17.10;98.80;;;;;;5052799;28;20240;-56
2024/02/21 11:42:27;;;;;;;4.90;1.80;;;17.20;98.40;;;;;;5052260;28;20259;-56
2024/02/21 11:44:56;;;;;;;4.15;1.60;;;17.20;97.90;;;;;;5052841;28;20209;-57
2024/02/21 11:47:24;;;;;;;4.22;1.77;;;17.30;98.30;;;;;;5052301;28;20291;-55
2024/02/21 11:49:53;;;;;;;5.35;1.80;;;17.20;97.60;;;;;;5052543;28;20259;-55
2024/02/21 11:52:24;;;;;;;5.00;2.00;;;17.30;97.30;;;;;;5052089;28;20210;-56
2024/02/21 11:54:52;;;;;;;4.78;1.80;;;17.30;97.30;;;;;;5052223;28;20210;-56
2024/02/21 11:57:19;;;;;;;6.38;2.30;;;17.50;97.20;;;;;;5052228;28;20206;-60
2024/02/21 11:59:46;;;;;;;7.88;3.30;;;17.60;97.20;;;;;;5052008;28;20236;-62
2024/02/21 12:02:13;;;;;;;4.30;2.22;;;17.80;96.80;;;;;;5051350;28;20245;-61
2024/02/21 12:04:42;;;;;;;4.18;1.58;;;17.90;96.20;;;;;;5051600;28;20212;-61
2024/02/21 12:07:10;;;;;;;4.07;1.60;;;17.90;95.40;;;;;;5059802;28;20209;-60
2024/02/21 12:09:36;;;;;;;6.00;2.00;;;17.90;95.00;;;;;;5055818;28;20642;-58
2024/02/21 12:12:05;;;;;;;4.55;1.98;;;18.00;94.60;;;;;;5063492;28;20693;-59
2024/02/21 12:14:33;;;;;;;8.95;5.03;;;17.90;94.30;;;;;;5060605;28;20302;-60
2024/02/21 12:17:01;;;;;;;11.65;7.85;;;17.90;94.60;;;;;;5060627;28;20213;-59
2024/02/21 12:19:29;;;;;;;10.43;6.07;;;17.90;94.60;;;;;;5062789;28;20252;-59
2024/02/21 12:21:58;;;;;;;3.88;1.85;;;17.90;94.40;;;;;;5063509;28;20728;-58
2024/02/21 12:24:25;;;;;;;3.85;2.08;;;17.90;93.90;;;;;;5061464;28;20216;-61
2024/02/21 12:26:52;;;;;;;4.63;2.60;;;18.00;93.60;;;;;;5060273;28;20263;-64
2024/02/21 12:29:19;;;;;;;4.30;2.03;;;18.10;93.60;;;;;;5061277;28;20229;-57
2024/02/21 12:31:46;;;;;;;3.80;1.50;;;18.10;93.40;;;;;;5063306;28;20681;-57
2024/02/21 12:34:13;;;;;;;4.25;1.60;;;18.00;93.30;;;;;;5063147;28;20209;-57
2024/02/21 12:36:43;;;;;;;4.95;1.73;;;18.00;93.10;;;;;;5060328;28;20197;-58
2024/02/21 12:39:11;;;;;;;5.43;2.30;;;17.80;93.00;;;;;;5060091;28;20253;-58
2024/02/21 12:41:39;;;;;;;6.88;3.70;;;17.90;93.00;;;;;;5062242;28;20217;-59
2024/02/21 12:44:06;;;;;;;7.78;1.80;;;18.00;92.80;;;;;;5063264;28;20208;-57
2024/02/21 12:46:33;;;;;;;4.07;1.70;;;18.10;92.30;;;;;;5060169;28;20288;-57
2024/02/21 12:49:00;;;;;;;5.40;1.48;;;18.10;92.20;;;;;;5059985;28;20651;-57
2024/02/21 12:51:27;;;;;;;4.63;1.35;;;18.00;92.20;;;;;;5062091;28;20206;-59